Saturday, February 28, 2015, 12:24 PM EST

KPHF, Williamsburg International Airport

Location: Newport News, VA, United States Lat: 37.133
Local Time: 12:24 PM EST (17:24 GMT) Lon: -76.5
Time Zone: US/Eastern Elev: 42 ft

Show me the last for .
Show Decoded

2015-02-28 11:54 METAR KPHF 281654Z VRB04KT 10SM CLR 00/M11 A3083 RMK AO2 SLP440 T00001111 =
2015-02-28 10:54 METAR KPHF 281554Z 02007KT 350V050 10SM CLR M01/M11 A3084 =
2015-02-28 09:54 METAR KPHF 281454Z 03007KT 10SM CLR M02/M12 A3083 RMK AO2 SLP441 T10171117 51021
                 =
2015-02-28 08:54 METAR KPHF 281354Z 01008KT 10SM CLR M02/M11 A3083 RMK AO2 SLP441 T10221111 =
2015-02-28 07:54 METAR KPHF 281254Z 02007KT 10SM CLR M03/M12 A3079 RMK AO2 SLP428 T10331117 =
2015-02-28 06:54 METAR KPHF 281154Z 02005KT 10SM CLR M05/M12 A3077 RMK AO2 SLP420 T10501122 11022
                 21056 51026 =
2015-02-28 05:54 METAR KPHF 281054Z 02006KT 10SM CLR M05/M13 A3075 =
2015-02-28 04:54 METAR KPHF 280954Z 01005KT 10SM CLR M04/M13 A3073 RMK AO2 SLP405 T10441128 =
2015-02-28 03:54 METAR KPHF 280854Z 02008KT 10SM CLR M04/M11 A3070 =
2015-02-28 02:54 METAR KPHF 280754Z 36006KT 10SM CLR M03/M09 A3068 RMK AO2 SLP389 T10331089 =
2015-02-28 01:54 METAR KPHF 280654Z 02006KT 10SM CLR M03/M09 A3066 =
2015-02-28 00:54 METAR KPHF 280554Z 04005KT 10SM CLR M02/M08 A3065 RMK AO2 SLP377 T10221083 10000
                 21028 51023 =
2015-02-27 23:54 METAR KPHF 280454Z 03006KT 10SM CLR M02/M07 A3062 =
2015-02-27 22:54 METAR KPHF 280354Z 04004KT 9SM CLR M02/M06 A3061 =
2015-02-27 21:54 METAR KPHF 280254Z AUTO 05005KT 8SM CLR M02/M06 A3058 RMK AO2 SLP355 T10171056
                 51021 TSNO =
2015-02-27 20:54 METAR KPHF 280154Z AUTO 05005KT 8SM CLR M01/M06 A3056 RMK AO2 SLP348 T10111056
                 TSNO =
2015-02-27 19:54 METAR KPHF 280054Z AUTO 04005KT 7SM CLR M01/M06 A3054 RMK AO2 SLP340 T10111056
                 TSNO =
2015-02-27 18:54 METAR KPHF 272354Z AUTO 05007KT 8SM CLR 00/M04 A3052 RMK AO2 SLP333 60000
                 T00001044 10028 20000 53018 TSNO =
2015-02-27 17:54 METAR KPHF 272254Z AUTO 04006KT 9SM FEW017 01/M04 A3049 RMK AO2 SLP325 T00061044
                 TSNO =
2015-02-27 17:26 METAR KPHF 272226Z AUTO 05006KT 8SM SCT015 01/M04 A3048 RMK AO2 T00111039 TSNO =
2015-02-27 17:16 METAR KPHF 272216Z AUTO 06009KT 8SM BKN015 01/M04 A3047 RMK AO2 T00111039 TSNO =
2015-02-27 16:54 METAR KPHF 272154Z 04009KT 9SM SCT015 02/M04 A3046 RMK AO2 SLP315 T00171039 =
2015-02-27 16:52 METAR KPHF 272152Z 05008KT 9SM FEW015 02/M04 A3046 RMK AO2 =
2015-02-27 15:54 METAR KPHF 272054Z 03009KT 8SM OVC018 02/M03 A3046 =
2015-02-27 14:54 METAR KPHF 271954Z 05007KT 10SM -RA SCT020 OVC028 03/M04 A3044 RMK AO2
                 RAE25B36UPB47E48 SLP308 P0000 T00281039 =
2015-02-27 14:34 METAR KPHF 271934Z 02006KT 10SM OVC029 02/M04 A3044 RMK AO2 RAE25 P0000
                 T00221039 =
2015-02-27 13:54 METAR KPHF 271854Z 06009KT 10SM -RA FEW026 BKN031 OVC048 02/M04 A3041 =
2015-02-27 12:54 METAR KPHF 271754Z 07008KT 10SM -RA OVC026 02/M03 A3041 RMK AO2 SLP296 P0000
                 60000 I6001 T00221033 10039 21039 52014 =
2015-02-27 12:30 METAR KPHF 271730Z 07007KT 10SM -RA BKN028 OVC038 03/M04 A3040 RMK AO2 P0000
                 T00281039 =

Support USWX by starting your Amazon purchase here.